createdAt,value
2023-03-11T00:04:01.740Z,8.92
2023-03-11T00:09:05.198Z,9.12
2023-03-11T00:14:08.061Z,6.89
2023-03-11T00:19:11.291Z,5.58
2023-03-11T00:24:14.114Z,4.74
2023-03-11T00:29:16.886Z,5.57
2023-03-11T00:34:20.056Z,8.94
2023-03-11T00:39:23.405Z,9.21
2023-03-11T00:44:26.242Z,6.90
2023-03-11T00:49:28.997Z,5.55
2023-03-11T00:54:31.756Z,4.66
2023-03-11T00:59:36.308Z,5.44
2023-03-11T01:04:39.061Z,8.80
2023-03-11T01:09:41.873Z,9.15
2023-03-11T01:14:44.660Z,6.82
2023-03-11T01:19:48.470Z,5.44
2023-03-11T01:24:51.253Z,4.53
2023-03-11T01:29:54.418Z,4.93
2023-03-11T01:34:57.152Z,8.39
2023-03-11T01:39:59.974Z,9.02
2023-03-11T01:45:02.774Z,6.75
2023-03-11T01:50:11.006Z,5.35
2023-03-11T01:55:17.439Z,4.49
2023-03-11T02:00:20.465Z,5.27
2023-03-11T02:05:25.217Z,8.60
2023-03-11T02:10:28.049Z,9.08
2023-03-11T02:15:30.810Z,6.83
2023-03-11T02:21:03.146Z,5.46
2023-03-11T02:26:37.640Z,4.45
2023-03-11T02:31:43.224Z,5.63
2023-03-11T02:36:46.293Z,8.76
2023-03-11T02:41:49.124Z,9.11
2023-03-11T02:46:53.410Z,6.69
2023-03-11T02:51:56.197Z,5.24
2023-03-11T02:56:59.023Z,4.32
2023-03-11T03:02:01.764Z,4.95
2023-03-11T03:07:04.515Z,8.33
2023-03-11T03:12:07.765Z,8.87
2023-03-11T03:17:10.527Z,6.56
2023-03-11T03:22:13.351Z,5.00
2023-03-11T03:27:16.155Z,4.77
2023-03-11T03:32:18.881Z,7.99
2023-03-11T03:37:21.615Z,9.01
2023-03-11T03:42:25.318Z,6.68
2023-03-11T03:47:28.725Z,5.06
2023-03-11T03:52:31.478Z,4.12
2023-03-11T03:57:34.202Z,3.50
2023-03-11T04:02:37.124Z,5.12
2023-03-11T04:07:40.056Z,8.28
2023-03-11T04:12:42.790Z,9.02
2023-03-11T04:17:45.735Z,6.66
2023-03-11T04:22:48.464Z,4.92
2023-03-11T04:27:52.639Z,4.99
2023-03-11T04:32:55.368Z,8.19
2023-03-11T04:37:58.221Z,8.70
2023-03-11T04:43:00.932Z,6.24
2023-03-11T04:48:04.279Z,4.72
2023-03-11T04:53:06.996Z,3.78
2023-03-11T04:58:09.729Z,5.41
2023-03-11T05:03:12.468Z,8.46
2023-03-11T05:08:15.221Z,8.62
2023-03-11T05:13:17.921Z,6.16
2023-03-11T05:18:20.941Z,4.64
2023-03-11T05:23:23.929Z,3.63
2023-03-11T05:28:26.651Z,4.51
2023-03-11T05:33:35.441Z,7.80
2023-03-11T05:38:38.205Z,8.32
2023-03-11T05:43:40.917Z,5.88
2023-03-11T05:48:43.668Z,4.30
2023-03-11T05:53:48.753Z,4.94
2023-03-11T05:58:51.527Z,7.90
2023-03-11T06:03:54.321Z,8.34
2023-03-11T06:08:57.966Z,5.80
2023-03-11T06:14:00.753Z,4.17
2023-03-11T06:19:03.523Z,5.49
2023-03-11T06:24:07.292Z,8.02
2023-03-11T06:29:15.046Z,6.53
2023-03-11T06:34:17.905Z,4.47
2023-03-11T06:39:20.650Z,6.40
2023-03-11T06:44:23.356Z,6.61
2023-03-11T06:49:26.092Z,4.29
2023-03-11T06:54:28.884Z,5.23
2023-03-11T06:59:31.668Z,7.60
2023-03-11T07:04:34.470Z,5.83
2023-03-11T07:09:37.223Z,3.98
2023-03-11T07:14:39.947Z,5.86
2023-03-11T07:19:42.758Z,7.32
2023-03-11T07:24:48.074Z,4.99
2023-03-11T07:29:50.860Z,4.97
2023-03-11T07:34:53.765Z,7.75
2023-03-11T07:39:56.507Z,7.01
2023-03-11T07:44:59.197Z,4.78
2023-03-11T07:50:02.123Z,4.94
2023-03-11T07:55:05.251Z,7.15
2023-03-11T08:00:09.165Z,5.22
2023-03-11T08:05:12.631Z,4.97
2023-03-11T08:10:15.356Z,7.73
2023-03-11T08:15:18.155Z,6.26
2023-03-11T08:20:20.956Z,4.75
2023-03-11T08:25:23.688Z,7.07
2023-03-11T08:30:26.530Z,7.76
2023-03-11T08:35:29.518Z,5.45
2023-03-11T08:40:32.837Z,5.78
2023-03-11T08:45:36.005Z,7.50
2023-03-11T08:50:53.813Z,5.46
2023-03-11T08:55:57.321Z,5.74
2023-03-11T09:01:00.580Z,7.11
2023-03-11T09:06:06.884Z,4.82
2023-03-11T09:11:11.189Z,4.55
2023-03-11T09:16:24.622Z,6.91
2023-03-11T09:21:27.753Z,5.15
2023-03-11T09:26:31.717Z,4.69
2023-03-11T09:31:34.633Z,6.25
2023-03-11T09:36:37.505Z,4.53
2023-03-11T09:41:59.344Z,6.10
2023-03-11T09:47:08.680Z,5.76
2023-03-11T09:53:10.443Z,4.39
2023-03-11T09:58:25.056Z,6.74
2023-03-11T10:03:34.878Z,4.95
2023-03-11T10:08:48.289Z,5.09
2023-03-11T10:14:24.112Z,6.46
2023-03-11T10:19:56.488Z,4.39
2023-03-11T10:25:16.618Z,6.33
2023-03-11T10:30:30.984Z,4.95
2023-03-11T10:35:40.559Z,4.99
2023-03-11T10:40:46.302Z,6.33
2023-03-11T10:45:51.480Z,4.43
2023-03-11T10:51:23.743Z,5.91
2023-03-11T10:56:37.845Z,4.66
2023-03-11T11:02:04.383Z,5.61
2023-03-11T11:07:28.546Z,6.57
2023-03-11T11:12:31.283Z,4.37
2023-03-11T11:17:34.400Z,5.79
2023-03-11T11:22:37.665Z,6.89
2023-03-11T11:27:54.411Z,4.64
2023-03-11T11:33:16.469Z,5.08
2023-03-11T11:38:24.772Z,5.92
2023-03-11T11:44:03.689Z,4.00
2023-03-11T11:49:32.388Z,5.52
2023-03-11T11:54:41.781Z,5.84
2023-03-11T11:59:45.345Z,4.11
2023-03-11T12:04:56.851Z,5.97
2023-03-11T12:10:19.784Z,5.54
2023-03-11T12:15:49.582Z,3.97
2023-03-11T12:20:58.391Z,5.89
2023-03-11T12:26:22.198Z,4.28
2023-03-11T12:31:28.048Z,4.84
2023-03-11T12:36:34.378Z,6.13
2023-03-11T12:41:41.972Z,4.19
2023-03-11T12:46:59.884Z,3.95
2023-03-11T12:52:08.809Z,5.72
2023-03-11T12:57:17.643Z,4.10
2023-03-11T13:02:29.467Z,3.49
2023-03-11T13:07:42.137Z,6.23
2023-03-11T13:12:49.888Z,5.38
2023-03-11T13:18:11.101Z,3.97
2023-03-11T13:23:13.813Z,3.89
2023-03-11T13:28:51.917Z,5.71
2023-03-11T13:33:58.072Z,4.16
2023-03-11T13:39:38.288Z,3.30
2023-03-11T13:44:42.021Z,5.45
2023-03-11T13:49:55.453Z,4.65
2023-03-11T13:55:03.841Z,3.45
2023-03-11T14:00:17.115Z,4.65
2023-03-11T14:05:24.457Z,6.77
2023-03-11T14:10:30.244Z,5.12
2023-03-11T14:15:44.385Z,3.99
2023-03-11T14:20:48.418Z,3.09
2023-03-11T14:26:02.586Z,4.19
2023-03-11T14:31:05.530Z,5.91
2023-03-11T14:36:14.052Z,4.14
2023-03-11T14:41:16.934Z,3.03
2023-03-11T14:46:29.953Z,3.30
2023-03-11T14:51:35.164Z,6.58
2023-03-11T14:56:44.369Z,5.08
2023-03-11T15:01:48.592Z,3.46
2023-03-11T15:06:51.458Z,4.55
2023-03-11T15:11:59.948Z,6.01
2023-03-11T15:17:36.467Z,3.99
2023-03-11T15:22:44.383Z,3.94
2023-03-11T15:27:47.204Z,4.90
2023-03-11T15:32:50.843Z,3.38
2023-03-11T15:38:23.889Z,4.28
2023-03-11T15:43:42.634Z,5.76
2023-03-11T15:48:45.303Z,3.97
2023-03-11T15:53:48.704Z,3.41
2023-03-11T15:58:53.865Z,5.29
2023-03-11T16:03:56.651Z,3.81
2023-03-11T16:08:59.432Z,3.23
2023-03-11T16:14:02.210Z,5.56
2023-03-11T16:19:04.954Z,4.04
2023-03-11T16:24:08.330Z,2.77
2023-03-11T16:29:19.024Z,4.52
2023-03-11T16:34:22.570Z,3.77
2023-03-11T16:39:25.436Z,2.52
2023-03-11T16:44:28.659Z,4.66
2023-03-11T16:49:31.441Z,4.84
2023-03-11T16:54:35.261Z,2.93
2023-03-11T16:59:37.976Z,2.17
2023-03-11T17:04:41.080Z,4.81
2023-03-11T17:09:43.901Z,4.67
2023-03-11T17:14:46.709Z,2.85
2023-03-11T17:19:49.708Z,1.97
2023-03-11T17:24:52.433Z,3.61
2023-03-11T17:29:55.133Z,4.83
2023-03-11T17:34:58.273Z,3.03
2023-03-11T17:40:01.066Z,2.08
2023-03-11T17:45:03.947Z,4.22
2023-03-11T17:50:08.180Z,3.75
2023-03-11T17:55:11.137Z,2.21
2023-03-11T18:00:15.106Z,1.51
2023-03-11T18:05:20.827Z,3.27
2023-03-11T18:10:23.696Z,2.51
2023-03-11T18:15:26.447Z,1.47
2023-03-11T18:20:29.157Z,1.44
2023-03-11T18:25:32.475Z,3.38
2023-03-11T18:30:38.085Z,2.11
2023-03-11T18:35:40.810Z,1.23
2023-03-11T18:40:44.401Z,1.73
2023-03-11T18:45:47.243Z,4.46
2023-03-11T18:50:56.078Z,3.18
2023-03-11T18:56:01.095Z,1.92
2023-03-11T19:01:09.650Z,1.16
2023-03-11T19:06:13.581Z,2.30
2023-03-11T19:11:23.136Z,4.05
2023-03-11T19:16:26.961Z,2.39
2023-03-11T19:21:29.719Z,1.37
2023-03-11T19:26:44.362Z,0.96
2023-03-11T19:31:47.881Z,4.09
2023-03-11T19:36:50.618Z,5.39
2023-03-11T19:41:54.067Z,3.31
2023-03-11T19:46:56.836Z,1.95
2023-03-11T19:51:59.588Z,1.25
2023-03-11T19:57:02.429Z,3.64
2023-03-11T20:02:06.457Z,3.13
2023-03-11T20:07:09.189Z,1.57
2023-03-11T20:12:11.966Z,2.04
2023-03-11T20:17:14.836Z,3.90
2023-03-11T20:22:17.827Z,2.20
2023-03-11T20:27:20.692Z,2.07
2023-03-11T20:32:23.488Z,3.53
2023-03-11T20:37:26.318Z,2.02
2023-03-11T20:42:29.065Z,1.36
2023-03-11T20:47:32.589Z,3.61
2023-03-11T20:52:35.885Z,2.44
2023-03-11T20:57:39.688Z,1.32
2023-03-11T21:02:43.667Z,3.38
2023-03-11T21:07:49.050Z,3.11
2023-03-11T21:12:51.856Z,1.51
2023-03-11T21:17:54.662Z,3.09
2023-03-11T21:22:57.351Z,2.48
2023-03-11T21:28:00.089Z,1.17
2023-03-11T21:33:03.113Z,3.34
2023-03-11T21:38:06.023Z,3.18
2023-03-11T21:43:08.906Z,1.49
2023-03-11T21:48:13.630Z,3.52
2023-03-11T21:53:16.368Z,3.10
2023-03-11T21:58:20.236Z,1.28
2023-03-11T22:03:23.097Z,2.93
2023-03-11T22:08:27.034Z,2.33
2023-03-11T22:13:29.837Z,2.48
2023-03-11T22:18:32.750Z,2.96
2023-03-11T22:23:35.612Z,2.13
2023-03-11T22:28:38.473Z,3.92
2023-03-11T22:33:41.527Z,1.88
2023-03-11T22:38:45.990Z,2.65
2023-03-11T22:43:48.725Z,2.40
2023-03-11T22:48:51.496Z,2.06
2023-03-11T22:53:54.188Z,3.83
2023-03-11T22:58:57.694Z,1.84
2023-03-11T23:04:00.456Z,2.11
2023-03-11T23:09:05.214Z,3.60
2023-03-11T23:14:08.047Z,1.98
2023-03-11T23:19:12.002Z,3.25
2023-03-11T23:24:14.745Z,1.80
2023-03-11T23:29:17.466Z,3.46
2023-03-11T23:34:20.183Z,2.15
2023-03-11T23:39:22.874Z,3.33
2023-03-11T23:44:27.008Z,2.62
2023-03-11T23:49:29.719Z,2.71
2023-03-11T23:54:32.433Z,4.00
2023-03-11T23:59:35.169Z,2.20
